Time;durP1;ratioP1;P1;durP2;ratioP2;P2;SDS_P1;SDS_P2;PMS_P1;PMS_P2;Temp;Humidity;BMP_temperature;BMP_pressure;BME280_temperature;BME280_humidity;BME280_pressure;Samples;Min_cycle;Max_cycle;Signal;HPM_P1;HPM_P2
2022/04/12 00:00:34;;;;;;;14.95;9.95;;;5.40;99.90;;;;;;5140043;27;20090;-47
2022/04/12 00:03:00;;;;;;;16.75;10.38;;;5.40;99.90;;;;;;5150949;27;20295;-47
2022/04/12 00:05:26;;;;;;;14.40;9.95;;;5.40;99.90;;;;;;5150958;27;20025;-46
2022/04/12 00:07:51;;;;;;;15.45;9.88;;;5.40;99.90;;;;;;5150958;27;20048;-47
2022/04/12 00:10:17;;;;;;;14.00;9.55;;;5.40;99.90;;;;;;5149379;27;20030;-46
2022/04/12 00:12:43;;;;;;;13.55;9.60;;;5.30;99.90;;;;;;5150553;27;20030;-49
2022/04/12 00:15:10;;;;;;;19.00;10.93;;;5.30;99.90;;;;;;5151051;27;20026;-47
2022/04/12 00:20:21;;;;;;;13.32;9.40;;;5.20;99.90;;;;;;5150060;27;20034;-50
2022/04/12 00:22:47;;;;;;;15.80;10.57;;;5.20;99.90;;;;;;5150689;27;20023;-47
2022/04/12 00:25:13;;;;;;;15.15;10.02;;;5.20;99.90;;;;;;5150823;27;20015;-48
2022/04/12 00:27:40;;;;;;;14.73;9.93;;;5.10;99.90;;;;;;5146419;27;20030;-46
2022/04/12 00:30:12;;;;;;;14.55;9.95;;;5.10;99.90;;;;;;5132559;27;20384;-51
2022/04/12 00:32:38;;;;;;;19.38;11.00;;;5.10;99.90;;;;;;5149735;27;20019;-46
2022/04/12 00:35:03;;;;;;;16.55;9.98;;;5.10;99.90;;;;;;5150315;27;20049;-46
2022/04/12 00:37:29;;;;;;;17.83;11.02;;;5.10;99.90;;;;;;5150097;27;20022;-46
2022/04/12 00:39:55;;;;;;;16.05;9.82;;;5.10;99.90;;;;;;5148159;27;20071;-48
2022/04/12 00:42:21;;;;;;;14.05;10.38;;;5.10;99.90;;;;;;5150229;27;20083;-47
2022/04/12 00:44:46;;;;;;;13.95;10.07;;;5.10;99.90;;;;;;5149894;27;20514;-46
2022/04/12 00:47:13;;;;;;;14.43;10.48;;;5.00;99.90;;;;;;5150041;27;20027;-47
2022/04/12 00:49:39;;;;;;;18.85;11.25;;;5.10;99.90;;;;;;5149307;27;20193;-45
2022/04/12 00:52:06;;;;;;;17.25;10.20;;;5.00;99.90;;;;;;5149821;27;20549;-46
2022/04/12 00:54:33;;;;;;;18.27;11.82;;;5.00;99.90;;;;;;5150008;27;20416;-47
2022/04/12 00:56:59;;;;;;;16.55;10.45;;;5.00;99.90;;;;;;5150271;27;20015;-47
2022/04/12 00:59:25;;;;;;;17.48;11.30;;;5.00;99.90;;;;;;5134361;27;20091;-46
2022/04/12 01:01:51;;;;;;;16.65;11.02;;;4.90;99.90;;;;;;5142219;27;20117;-46
2022/04/12 01:04:16;;;;;;;15.00;10.05;;;4.90;99.90;;;;;;5149992;27;20107;-47
2022/04/12 01:06:43;;;;;;;17.98;11.10;;;4.90;99.90;;;;;;5149174;27;20282;-46
2022/04/12 01:09:09;;;;;;;20.83;11.68;;;4.90;99.90;;;;;;5149755;27;20019;-47
2022/04/12 01:11:36;;;;;;;19.42;11.70;;;4.80;99.90;;;;;;5148410;27;20054;-46
2022/04/12 01:14:03;;;;;;;18.65;10.73;;;4.80;99.90;;;;;;5149666;27;20550;-47
2022/04/12 01:16:29;;;;;;;20.50;11.32;;;4.80;99.90;;;;;;5149642;27;20043;-47
2022/04/12 01:18:54;;;;;;;18.77;11.35;;;4.80;99.90;;;;;;5149044;27;20506;-48
2022/04/12 01:21:20;;;;;;;16.23;11.40;;;4.90;99.90;;;;;;5151893;27;20030;-47
2022/04/12 01:23:59;;;;;;;16.67;11.18;;;4.90;99.90;;;;;;5152271;27;20051;-47
2022/04/12 01:26:25;;;;;;;20.75;11.57;;;4.90;99.90;;;;;;5153668;27;20548;-47
2022/04/12 01:28:51;;;;;;;16.50;11.20;;;4.90;99.90;;;;;;5139086;27;20039;-48
2022/04/12 01:31:16;;;;;;;19.48;11.52;;;4.80;99.90;;;;;;5144858;27;20194;-46
2022/04/12 01:33:42;;;;;;;17.48;11.23;;;4.80;99.90;;;;;;5153585;27;20027;-48
2022/04/12 01:36:08;;;;;;;22.35;12.38;;;4.80;99.90;;;;;;5153982;27;20010;-47
2022/04/12 01:38:33;;;;;;;18.38;11.57;;;4.90;99.90;;;;;;5153013;27;20023;-47
2022/04/12 01:40:59;;;;;;;20.98;11.38;;;4.80;99.90;;;;;;5153267;27;20030;-49
2022/04/12 01:43:24;;;;;;;17.35;11.40;;;4.90;99.90;;;;;;5152301;27;20093;-46
2022/04/12 01:45:50;;;;;;;26.85;12.18;;;4.90;99.90;;;;;;5153541;27;20027;-48
2022/04/12 01:48:15;;;;;;;20.17;12.35;;;4.90;99.90;;;;;;5152265;27;20079;-46
2022/04/12 01:50:41;;;;;;;19.02;11.73;;;4.90;99.90;;;;;;5152673;27;20034;-46
2022/04/12 01:53:06;;;;;;;16.70;10.68;;;4.80;99.90;;;;;;5153331;27;20018;-46
2022/04/12 01:55:32;;;;;;;16.90;11.95;;;4.80;99.90;;;;;;5153330;27;20034;-49
2022/04/12 01:57:57;;;;;;;16.17;10.95;;;4.80;99.90;;;;;;5145326;27;20172;-47
2022/04/12 02:00:23;;;;;;;18.60;11.70;;;4.80;99.90;;;;;;5138668;27;20019;-48
2022/04/12 02:02:48;;;;;;;23.83;11.43;;;4.80;99.90;;;;;;5152689;27;20057;-45
2022/04/12 02:05:14;;;;;;;18.52;10.35;;;4.80;99.90;;;;;;5153118;27;20029;-49
2022/04/12 02:07:42;;;;;;;14.55;11.05;;;4.80;99.90;;;;;;5152680;27;20387;-49
2022/04/12 02:10:09;;;;;;;18.88;11.68;;;4.80;99.90;;;;;;5151992;27;20041;-47
2022/04/12 02:12:35;;;;;;;18.17;11.90;;;4.80;99.90;;;;;;5152558;27;20019;-48
2022/04/12 02:15:03;;;;;;;16.88;11.65;;;4.80;99.90;;;;;;5152294;27;20501;-45
2022/04/12 02:17:28;;;;;;;21.75;11.68;;;4.70;99.90;;;;;;5152482;27;20027;-49
2022/04/12 02:19:54;;;;;;;19.58;12.20;;;4.70;99.90;;;;;;5151812;27;20019;-47
2022/04/12 02:22:19;;;;;;;16.02;11.48;;;4.70;99.90;;;;;;5152491;27;20383;-48
2022/04/12 02:24:45;;;;;;;17.60;10.95;;;4.60;99.90;;;;;;5152294;27;20062;-50
2022/04/12 02:27:11;;;;;;;17.67;11.63;;;4.60;99.90;;;;;;5152327;27;20062;-46
2022/04/12 02:29:36;;;;;;;17.92;12.02;;;4.60;99.90;;;;;;5135440;27;20027;-47
2022/04/12 02:32:02;;;;;;;22.13;12.38;;;4.60;99.90;;;;;;5133668;27;20023;-45
2022/04/12 02:34:27;;;;;;;17.08;11.02;;;4.50;99.90;;;;;;5121357;27;20027;-50
2022/04/12 02:36:53;;;;;;;17.10;11.27;;;4.50;99.90;;;;;;5121353;27;20034;-48
2022/04/12 02:39:18;;;;;;;15.82;11.30;;;4.50;99.90;;;;;;5119186;27;20031;-47
2022/04/12 02:41:44;;;;;;;20.33;11.90;;;4.50;99.90;;;;;;5121982;27;20028;-47
2022/04/12 02:44:09;;;;;;;22.23;12.38;;;4.40;99.90;;;;;;5120624;27;20107;-46
2022/04/12 02:46:35;;;;;;;21.33;12.63;;;4.40;99.90;;;;;;5119216;27;20023;-48
2022/04/12 02:49:00;;;;;;;21.85;13.07;;;4.40;99.90;;;;;;5120925;27;20035;-50
2022/04/12 02:51:26;;;;;;;23.15;13.40;;;4.40;99.90;;;;;;5119694;27;20028;-46
2022/04/12 02:53:51;;;;;;;19.50;12.15;;;4.40;99.90;;;;;;5120531;27;20069;-48
2022/04/12 02:56:17;;;;;;;20.77;12.48;;;4.30;99.90;;;;;;5119672;27;20070;-49
2022/04/12 02:58:42;;;;;;;22.75;13.48;;;4.30;99.90;;;;;;5121992;27;20425;-46
2022/04/12 03:01:08;;;;;;;20.33;13.02;;;4.30;99.90;;;;;;5125470;27;20092;-46
2022/04/12 03:03:34;;;;;;;15.95;12.35;;;4.30;99.90;;;;;;5120721;27;20055;-45
2022/04/12 03:05:59;;;;;;;17.80;12.18;;;4.20;99.90;;;;;;5119186;27;20141;-46
2022/04/12 03:08:25;;;;;;;23.13;13.07;;;4.20;99.90;;;;;;5119909;27;20496;-45
2022/04/12 03:10:50;;;;;;;19.27;12.73;;;4.20;99.90;;;;;;5117996;27;20110;-45
2022/04/12 03:13:16;;;;;;;20.55;12.30;;;4.20;99.90;;;;;;5119841;27;20376;-47
2022/04/12 03:15:41;;;;;;;24.58;13.20;;;4.20;99.90;;;;;;5117163;27;20189;-47
2022/04/12 03:18:07;;;;;;;20.58;13.45;;;4.20;99.90;;;;;;5113961;27;20020;-46
2022/04/12 03:20:33;;;;;;;25.30;12.25;;;4.10;99.90;;;;;;5120458;27;20027;-48
2022/04/12 03:22:58;;;;;;;25.67;12.75;;;4.10;99.90;;;;;;5119020;27;20177;-49
2022/04/12 03:25:24;;;;;;;20.63;12.35;;;4.10;99.90;;;;;;5120356;27;20102;-50
2022/04/12 03:27:50;;;;;;;22.65;13.88;;;4.10;99.90;;;;;;5116532;27;20030;-48
2022/04/12 03:30:15;;;;;;;19.48;12.27;;;4.10;99.90;;;;;;5132733;27;20028;-47
2022/04/12 03:32:41;;;;;;;19.45;12.85;;;4.10;99.90;;;;;;5130539;27;20031;-47
2022/04/12 03:35:07;;;;;;;21.70;13.25;;;4.00;99.90;;;;;;5130580;27;20022;-48
2022/04/12 03:37:32;;;;;;;18.85;12.50;;;4.00;99.90;;;;;;5129215;27;20027;-47
2022/04/12 03:39:58;;;;;;;20.83;13.05;;;4.10;99.90;;;;;;5128664;27;20027;-47
2022/04/12 03:42:23;;;;;;;23.77;13.63;;;4.10;99.90;;;;;;5130582;27;20023;-46
2022/04/12 03:44:51;;;;;;;19.48;12.93;;;4.00;99.90;;;;;;5129184;27;20035;-48
2022/04/12 03:47:17;;;;;;;21.02;13.10;;;4.00;99.90;;;;;;5129330;27;20023;-46
2022/04/12 03:49:43;;;;;;;24.50;12.80;;;4.00;99.90;;;;;;5120305;27;20032;-47
2022/04/12 03:52:09;;;;;;;18.65;13.00;;;4.00;99.90;;;;;;5113819;27;20106;-49
2022/04/12 03:54:35;;;;;;;20.60;12.40;;;4.00;99.90;;;;;;5108764;28;20070;-47
2022/04/12 03:57:01;;;;;;;22.60;14.05;;;3.90;99.90;;;;;;5112068;27;20508;-50
2022/04/12 03:59:26;;;;;;;20.52;12.57;;;4.00;99.90;;;;;;5127019;27;20051;-48
2022/04/12 04:01:52;;;;;;;21.90;13.77;;;3.90;99.90;;;;;;5131252;27;20023;-48
2022/04/12 04:04:18;;;;;;;22.17;13.77;;;3.90;99.90;;;;;;5128830;27;20261;-48
2022/04/12 04:06:43;;;;;;;21.38;14.10;;;3.90;99.90;;;;;;5131709;27;20023;-48
2022/04/12 04:09:09;;;;;;;23.73;13.93;;;3.90;99.90;;;;;;5131060;27;20060;-48
2022/04/12 04:11:38;;;;;;;25.60;13.52;;;3.90;99.90;;;;;;5125313;27;20034;-50
2022/04/12 04:14:05;;;;;;;26.77;13.48;;;3.90;99.90;;;;;;5118351;27;20104;-50
2022/04/12 04:16:31;;;;;;;22.25;13.60;;;3.80;99.90;;;;;;5117757;27;20031;-49
2022/04/12 04:18:58;;;;;;;19.48;13.13;;;3.80;99.90;;;;;;5110366;28;20032;-49
2022/04/12 04:21:23;;;;;;;24.17;14.50;;;3.80;99.90;;;;;;5121947;27;20035;-50
2022/04/12 04:23:49;;;;;;;20.70;13.38;;;3.80;99.90;;;;;;5130752;27;20080;-47
2022/04/12 04:26:15;;;;;;;22.88;13.52;;;3.80;99.90;;;;;;5118400;28;20030;-51
2022/04/12 04:28:42;;;;;;;23.55;14.48;;;3.80;99.90;;;;;;5120892;27;20065;-48
2022/04/12 04:37:52;;;;;;;22.58;15.00;;;3.80;99.90;;;;;;5128111;27;20080;-48
2022/04/12 04:40:19;;;;;;;26.30;15.52;;;3.80;99.90;;;;;;5128650;28;20019;-47
2022/04/12 04:42:45;;;;;;;21.83;14.00;;;3.80;99.90;;;;;;5129583;27;20353;-49
2022/04/12 04:45:12;;;;;;;26.92;15.02;;;3.80;99.90;;;;;;5128958;27;20031;-47
2022/04/12 04:47:55;;;;;;;22.08;13.45;;;3.80;99.90;;;;;;5129133;27;20019;-50
2022/04/12 04:50:22;;;;;;;25.33;13.88;;;3.90;99.90;;;;;;5128657;27;20031;-48
2022/04/12 04:52:49;;;;;;;20.38;13.27;;;3.90;99.90;;;;;;5129105;27;20027;-48
2022/04/12 04:55:16;;;;;;;24.65;13.23;;;3.90;99.90;;;;;;5127954;27;20297;-51
2022/04/12 04:57:42;;;;;;;24.52;13.70;;;4.00;99.90;;;;;;5133438;27;20448;-47
2022/04/12 05:00:15;;;;;;;19.35;13.05;;;3.90;99.90;;;;;;5136211;27;20023;-48
2022/04/12 05:02:42;;;;;;;23.95;12.73;;;4.00;99.90;;;;;;5112660;28;20114;-48
2022/04/12 05:05:08;;;;;;;19.85;12.88;;;4.00;99.90;;;;;;5112632;28;20103;-48
2022/04/12 05:07:34;;;;;;;23.10;13.45;;;4.10;99.90;;;;;;5112579;28;20035;-47
2022/04/12 05:09:59;;;;;;;23.08;12.65;;;4.10;99.90;;;;;;5111793;28;20207;-48
2022/04/12 05:12:25;;;;;;;22.13;13.23;;;4.10;99.90;;;;;;5112282;28;20050;-48
2022/04/12 05:14:50;;;;;;;23.13;12.95;;;4.20;99.90;;;;;;5120346;27;20020;-49
2022/04/12 05:17:24;;;;;;;23.85;13.60;;;4.20;99.90;;;;;;5121504;27;20024;-47
2022/04/12 05:19:50;;;;;;;21.00;12.15;;;4.20;99.90;;;;;;5117149;27;20023;-48
2022/04/12 05:22:15;;;;;;;18.70;11.82;;;4.30;99.90;;;;;;5127199;27;20016;-48
2022/04/12 05:24:41;;;;;;;18.25;13.00;;;4.30;99.90;;;;;;5126647;27;20493;-49
2022/04/12 05:27:06;;;;;;;17.30;11.30;;;4.30;99.90;;;;;;5124570;27;20057;-50
2022/04/12 05:29:32;;;;;;;18.48;12.18;;;4.30;99.90;;;;;;5124314;27;20511;-47
2022/04/12 05:31:58;;;;;;;23.25;13.50;;;4.40;99.90;;;;;;5124913;27;20016;-46
2022/04/12 05:34:24;;;;;;;20.92;11.43;;;4.50;99.90;;;;;;5126104;27;20027;-49
2022/04/12 05:36:49;;;;;;;18.20;11.98;;;4.50;99.90;;;;;;5125177;27;20032;-47
2022/04/12 05:39:15;;;;;;;17.23;11.40;;;4.60;99.90;;;;;;5125993;27;20024;-47
2022/04/12 05:41:40;;;;;;;16.15;10.25;;;4.70;99.90;;;;;;5119880;27;20030;-46
2022/04/12 05:44:06;;;;;;;16.20;9.80;;;4.70;99.90;;;;;;5124935;27;20019;-47
2022/04/12 05:46:31;;;;;;;20.75;11.18;;;4.90;99.90;;;;;;5121364;27;20391;-47
2022/04/12 05:48:57;;;;;;;15.10;9.50;;;5.00;99.90;;;;;;5122975;27;20027;-50
2022/04/12 05:51:23;;;;;;;16.33;9.02;;;5.00;99.90;;;;;;5124494;27;20067;-46
2022/04/12 05:53:49;;;;;;;12.85;9.07;;;5.10;99.90;;;;;;5119790;27;20028;-47
2022/04/12 05:56:14;;;;;;;18.02;9.85;;;5.20;99.90;;;;;;5122672;27;20168;-48
2022/04/12 05:58:40;;;;;;;15.18;9.65;;;5.30;99.90;;;;;;5118850;27;20023;-46
2022/04/12 06:01:06;;;;;;;14.63;8.68;;;5.40;99.90;;;;;;5127741;27;20015;-48
2022/04/12 06:03:31;;;;;;;14.63;10.07;;;5.50;99.90;;;;;;5118869;27;20105;-49
2022/04/12 06:05:57;;;;;;;16.48;9.18;;;5.60;99.90;;;;;;5116602;27;20028;-46
2022/04/12 06:08:22;;;;;;;15.68;8.52;;;5.70;99.90;;;;;;5117272;27;20059;-47
2022/04/12 06:10:48;;;;;;;12.50;7.90;;;5.80;99.90;;;;;;5121551;27;20037;-46
2022/04/12 06:13:14;;;;;;;13.38;7.65;;;5.90;99.90;;;;;;5123798;27;20523;-50
2022/04/12 06:15:39;;;;;;;15.23;8.55;;;6.10;99.90;;;;;;5121553;27;20019;-49
2022/04/12 06:18:06;;;;;;;13.65;7.88;;;6.30;99.90;;;;;;5127945;27;20094;-48
2022/04/12 06:20:32;;;;;;;15.40;7.65;;;6.50;99.90;;;;;;5140953;27;20027;-48
2022/04/12 06:22:57;;;;;;;11.82;8.02;;;6.70;99.90;;;;;;5144940;27;20361;-51
2022/04/12 06:25:23;;;;;;;16.33;7.18;;;6.70;99.90;;;;;;5131494;27;20031;-50
2022/04/12 06:27:51;;;;;;;15.98;7.57;;;6.90;99.90;;;;;;5122600;27;20039;-47
2022/04/12 06:30:20;;;;;;;20.48;7.38;;;7.00;99.90;;;;;;5130952;27;20180;-47
2022/04/12 06:32:46;;;;;;;10.60;6.57;;;7.10;99.90;;;;;;5123413;27;20122;-47
2022/04/12 06:35:13;;;;;;;11.35;6.57;;;7.30;99.90;;;;;;5120108;27;20019;-47
2022/04/12 06:37:40;;;;;;;14.32;6.43;;;7.50;99.90;;;;;;5121054;27;20549;-49
2022/04/12 06:40:07;;;;;;;11.93;5.88;;;7.80;99.90;;;;;;5117091;27;20445;-48
2022/04/12 06:42:34;;;;;;;12.00;6.35;;;7.90;99.80;;;;;;5120728;27;20030;-47
2022/04/12 06:45:00;;;;;;;10.85;5.57;;;8.10;99.50;;;;;;5118686;27;20045;-47
2022/04/12 06:47:25;;;;;;;8.55;5.55;;;8.20;98.40;;;;;;5120550;27;20023;-50
2022/04/12 06:49:52;;;;;;;8.90;6.05;;;8.30;98.40;;;;;;5116482;27;20520;-48
2022/04/12 06:52:19;;;;;;;10.02;5.75;;;8.50;97.70;;;;;;5124459;27;20487;-46
2022/04/12 06:54:45;;;;;;;10.10;5.78;;;8.70;96.60;;;;;;5120354;27;20035;-48
2022/04/12 06:57:11;;;;;;;8.68;5.18;;;8.70;96.10;;;;;;5118193;27;20019;-48
2022/04/12 06:59:37;;;;;;;10.82;5.03;;;8.90;95.60;;;;;;5122887;27;20022;-47
2022/04/12 07:02:03;;;;;;;13.02;5.70;;;8.90;95.60;;;;;;5117970;27;20035;-50
2022/04/12 07:04:29;;;;;;;9.60;5.65;;;9.00;95.50;;;;;;5134600;27;20028;-49
2022/04/12 07:06:56;;;;;;;10.23;5.30;;;9.20;94.50;;;;;;5151784;27;20280;-48
2022/04/12 07:09:22;;;;;;;8.77;5.45;;;9.30;94.60;;;;;;5150769;27;20047;-47
2022/04/12 07:11:48;;;;;;;9.10;5.25;;;9.30;94.60;;;;;;5140274;27;20023;-47
2022/04/12 07:14:13;;;;;;;8.23;5.38;;;9.40;94.50;;;;;;5133811;27;20102;-48
2022/04/12 07:16:39;;;;;;;7.80;5.20;;;9.50;94.40;;;;;;5134437;27;20542;-50
2022/04/12 07:19:04;;;;;;;11.57;5.72;;;9.60;94.50;;;;;;5137376;27;20083;-48
2022/04/12 07:21:31;;;;;;;9.45;5.75;;;9.60;94.10;;;;;;5140711;27;20020;-47
2022/04/12 07:23:59;;;;;;;7.32;5.05;;;9.80;94.10;;;;;;5130968;27;20735;-47
2022/04/12 07:26:26;;;;;;;7.07;4.70;;;10.00;94.10;;;;;;5130643;27;20081;-49
2022/04/12 07:28:51;;;;;;;7.00;4.78;;;10.10;92.70;;;;;;5137273;27;20402;-47
2022/04/12 07:31:17;;;;;;;8.00;4.90;;;10.20;92.80;;;;;;5129773;27;20057;-48
2022/04/12 07:33:42;;;;;;;7.18;4.72;;;10.40;92.70;;;;;;5131890;27;20042;-48
2022/04/12 07:36:08;;;;;;;10.13;4.70;;;10.50;93.00;;;;;;5123954;27;20432;-47
2022/04/12 07:38:33;;;;;;;7.97;5.15;;;10.80;92.40;;;;;;5122320;27;20084;-47
2022/04/12 07:40:59;;;;;;;7.95;4.72;;;11.00;91.40;;;;;;5119242;27;20035;-47
2022/04/12 07:43:24;;;;;;;5.85;4.72;;;11.20;91.20;;;;;;5121162;27;20028;-48
2022/04/12 07:45:50;;;;;;;11.63;5.00;;;11.30;90.90;;;;;;5122702;27;20084;-47
2022/04/12 07:48:15;;;;;;;9.82;4.60;;;11.60;90.00;;;;;;5140154;27;20091;-47
2022/04/12 07:50:41;;;;;;;11.23;4.97;;;11.70;88.30;;;;;;5123458;27;20039;-45
2022/04/12 07:53:06;;;;;;;10.10;4.55;;;11.80;87.40;;;;;;5115476;27;20035;-45
2022/04/12 07:55:32;;;;;;;8.05;4.75;;;12.10;86.50;;;;;;5124758;27;20129;-46
2022/04/12 07:57:57;;;;;;;7.65;4.30;;;12.10;84.40;;;;;;5120245;27;20102;-48
2022/04/12 08:00:23;;;;;;;6.38;4.65;;;12.30;85.10;;;;;;5126144;27;20029;-47
2022/04/12 08:02:49;;;;;;;7.00;4.28;;;12.60;83.30;;;;;;5120408;27;20058;-46
2022/04/12 08:05:15;;;;;;;7.68;4.90;;;12.80;82.80;;;;;;5133866;27;20076;-45
2022/04/12 08:07:47;;;;;;;5.57;4.50;;;12.90;81.20;;;;;;5108990;28;20023;-46
2022/04/12 08:10:19;;;;;;;11.15;4.72;;;13.10;82.00;;;;;;5109442;27;20015;-48
2022/04/12 08:12:46;;;;;;;6.65;4.53;;;13.20;81.80;;;;;;5130013;27;20016;-45
2022/04/12 08:15:15;;;;;;;9.35;5.25;;;13.50;80.10;;;;;;5134655;27;20007;-46
2022/04/12 08:17:41;;;;;;;7.15;4.82;;;13.70;79.00;;;;;;5133492;27;20014;-46
2022/04/12 08:20:09;;;;;;;7.22;4.90;;;14.10;77.90;;;;;;5139939;27;20035;-49
2022/04/12 08:22:35;;;;;;;8.15;5.05;;;14.10;76.50;;;;;;5132864;27;20027;-46
2022/04/12 08:25:01;;;;;;;5.65;4.40;;;14.00;75.50;;;;;;5144264;27;20037;-46
2022/04/12 08:27:27;;;;;;;7.57;4.45;;;14.30;76.20;;;;;;5136826;27;20486;-47
2022/04/12 08:29:53;;;;;;;11.30;4.65;;;14.50;75.70;;;;;;5132412;27;20408;-50
2022/04/12 08:32:19;;;;;;;9.55;5.20;;;14.90;74.40;;;;;;5116888;27;20028;-46
2022/04/12 08:34:45;;;;;;;7.85;4.40;;;15.60;72.60;;;;;;5117924;27;20029;-48
2022/04/12 08:37:11;;;;;;;7.03;4.05;;;15.80;71.70;;;;;;5134074;27;20028;-46
2022/04/12 08:39:37;;;;;;;6.97;3.95;;;16.40;70.10;;;;;;5138031;27;20050;-46
2022/04/12 08:42:04;;;;;;;6.55;4.47;;;17.00;69.40;;;;;;5125363;27;20103;-46
2022/04/12 08:44:32;;;;;;;5.30;4.15;;;17.60;64.70;;;;;;5124523;27;20054;-48
2022/04/12 08:47:01;;;;;;;5.95;3.85;;;18.50;62.90;;;;;;5122910;27;20177;-48
2022/04/12 08:49:28;;;;;;;7.93;4.20;;;19.30;60.40;;;;;;5124747;27;20492;-50
2022/04/12 08:51:53;;;;;;;8.63;3.92;;;19.90;55.70;;;;;;5126153;27;20240;-48
2022/04/12 08:54:20;;;;;;;6.32;4.05;;;20.60;54.60;;;;;;5122224;27;20392;-47
2022/04/12 08:56:50;;;;;;;5.38;3.58;;;21.20;53.00;;;;;;5128138;27;20023;-47
2022/04/12 08:59:19;;;;;;;6.50;3.80;;;22.00;50.90;;;;;;5120525;27;20034;-49
2022/04/12 09:01:46;;;;;;;5.40;3.45;;;22.70;48.30;;;;;;5128631;27;20493;-46
2022/04/12 09:04:13;;;;;;;4.78;3.47;;;23.40;47.70;;;;;;5125157;27;20068;-48
2022/04/12 09:06:58;;;;;;;5.78;3.42;;;23.90;46.20;;;;;;5129205;27;20184;-47
2022/04/12 09:09:25;;;;;;;7.00;3.95;;;23.50;44.30;;;;;;5121093;27;20099;-47
2022/04/12 09:12:15;;;;;;;5.53;4.00;;;23.90;45.30;;;;;;5123580;27;20029;-48
2022/04/12 09:14:45;;;;;;;7.55;3.47;;;24.20;44.90;;;;;;5130146;27;20019;-48
2022/04/12 09:17:13;;;;;;;5.10;3.58;;;23.50;44.70;;;;;;5143520;27;20019;-48
2022/04/12 09:19:39;;;;;;;7.32;3.97;;;23.50;45.10;;;;;;5155357;27;20034;-47
2022/04/12 09:22:15;;;;;;;7.28;3.70;;;23.80;43.90;;;;;;5136863;27;20387;-50
2022/04/12 09:24:48;;;;;;;6.68;4.43;;;23.90;43.90;;;;;;5139227;27;20402;-47
2022/04/12 09:27:15;;;;;;;5.78;3.97;;;23.80;43.50;;;;;;5145201;27;20285;-50
2022/04/12 09:29:45;;;;;;;6.40;3.97;;;23.40;43.90;;;;;;5134366;27;20034;-50
2022/04/12 09:32:13;;;;;;;6.70;4.05;;;23.20;44.70;;;;;;5136025;27;20023;-47
2022/04/12 09:34:39;;;;;;;5.47;4.22;;;23.40;43.70;;;;;;5137597;27;20448;-48
2022/04/12 09:37:35;;;;;;;5.63;3.95;;;23.90;44.00;;;;;;5151168;27;20019;-49
2022/04/12 09:42:53;;;;;;;6.97;3.25;;;25.30;41.60;;;;;;5122839;27;20111;-47
2022/04/12 09:45:22;;;;;;;6.38;3.80;;;26.00;40.70;;;;;;5124323;27;20015;-47
2022/04/12 09:47:50;;;;;;;4.35;3.13;;;25.90;41.50;;;;;;5125383;27;20057;-47
2022/04/12 09:50:20;;;;;;;5.18;3.33;;;27.00;39.40;;;;;;5122310;27;20035;-48
2022/04/12 09:52:59;;;;;;;19.52;6.68;;;27.70;38.50;;;;;;5121833;27;20114;-47
2022/04/12 09:55:37;;;;;;;4.63;3.00;;;28.00;39.40;;;;;;5125442;27;20081;-47
2022/04/12 09:58:05;;;;;;;4.53;3.03;;;29.00;38.00;;;;;;5114028;27;20110;-48
2022/04/12 10:00:32;;;;;;;6.00;3.33;;;28.30;37.20;;;;;;5125835;27;20023;-51
2022/04/12 10:03:01;;;;;;;4.28;3.15;;;28.50;36.90;;;;;;5117849;27;20028;-49
2022/04/12 10:05:28;;;;;;;5.35;3.10;;;28.80;35.90;;;;;;5130749;27;20127;-47
2022/04/12 10:07:58;;;;;;;3.50;3.10;;;28.30;36.20;;;;;;5122627;27;20383;-49
2022/04/12 10:10:24;;;;;;;6.90;3.22;;;28.00;36.00;;;;;;5117661;27;20020;-49
2022/04/12 10:12:50;;;;;;;8.95;3.30;;;27.60;35.80;;;;;;5123078;27;20031;-48
2022/04/12 10:15:16;;;;;;;3.75;2.92;;;27.10;37.30;;;;;;5120463;27;20024;-47
2022/04/12 10:17:42;;;;;;;2.95;2.65;;;26.90;37.90;;;;;;5119392;27;20063;-47
2022/04/12 10:20:09;;;;;;;4.70;3.20;;;27.00;36.60;;;;;;5113558;27;20047;-49
2022/04/12 10:22:35;;;;;;;4.97;3.35;;;27.10;37.10;;;;;;5115176;27;20496;-49
2022/04/12 10:25:02;;;;;;;4.93;3.88;;;27.60;37.10;;;;;;5128333;27;20027;-48
2022/04/12 10:27:30;;;;;;;4.10;2.88;;;27.20;36.60;;;;;;5119190;27;20027;-49
2022/04/12 10:30:27;;;;;;;3.40;3.05;;;27.80;36.20;;;;;;5137658;27;20020;-49
2022/04/12 10:33:08;;;;;;;5.10;3.33;;;28.20;36.50;;;;;;5107802;27;20401;-49
2022/04/12 10:35:43;;;;;;;4.05;2.92;;;28.60;35.40;;;;;;5142055;27;20027;-50
2022/04/12 10:38:12;;;;;;;6.20;2.83;;;28.60;35.10;;;;;;5138678;27;20404;-47
2022/04/12 10:40:43;;;;;;;6.60;2.80;;;28.30;35.40;;;;;;5131199;27;20023;-47
2022/04/12 10:43:11;;;;;;;3.63;3.15;;;28.30;35.00;;;;;;5123247;27;20072;-48
2022/04/12 10:45:43;;;;;;;3.97;3.38;;;27.50;35.40;;;;;;5119389;27;20400;-47
2022/04/12 10:48:21;;;;;;;4.63;3.03;;;26.40;35.60;;;;;;5119878;27;20026;-49
2022/04/12 10:50:50;;;;;;;6.63;3.58;;;25.90;36.60;;;;;;5128379;27;20027;-47
2022/04/12 10:53:35;;;;;;;5.15;3.00;;;25.80;36.80;;;;;;5132341;27;20019;-47
2022/04/12 10:56:13;;;;;;;5.40;3.10;;;25.70;37.10;;;;;;5123986;27;20080;-48
2022/04/12 10:58:39;;;;;;;21.45;15.10;;;25.90;37.40;;;;;;5139871;27;20109;-50
2022/04/12 11:01:08;;;;;;;31.83;22.75;;;26.10;37.00;;;;;;5131974;27;20056;-50
2022/04/12 11:03:43;;;;;;;4.78;3.28;;;26.00;36.60;;;;;;5140412;27;20058;-48
2022/04/12 11:06:13;;;;;;;3.72;3.00;;;26.20;36.10;;;;;;5124760;27;20023;-49
2022/04/12 11:08:38;;;;;;;3.53;2.60;;;26.00;36.80;;;;;;5123357;27;20039;-49
2022/04/12 11:11:04;;;;;;;4.18;2.80;;;26.50;36.70;;;;;;5121233;27;20245;-50
2022/04/12 11:13:34;;;;;;;6.38;3.58;;;27.00;36.50;;;;;;5128410;27;20047;-47
2022/04/12 11:16:19;;;;;;;;;;;27.70;35.90;;;;;;5124080;27;20024;-50
2022/04/12 11:18:50;;;;;;;5.18;3.38;;;28.00;35.30;;;;;;5117905;27;19934;-46
2022/04/12 11:21:21;;;;;;;6.95;3.35;;;28.00;34.90;;;;;;5124216;27;20028;-51
2022/04/12 11:24:00;;;;;;;3.95;3.22;;;28.20;34.30;;;;;;5128738;27;20015;-51
2022/04/12 11:26:40;;;;;;;4.88;3.53;;;28.30;33.90;;;;;;5128361;27;20026;-49
2022/04/12 11:29:13;;;;;;;4.85;3.40;;;27.50;34.20;;;;;;5121046;27;20028;-48
2022/04/12 11:31:50;;;;;;;4.97;3.33;;;27.50;35.00;;;;;;5136808;27;20030;-50
2022/04/12 11:34:18;;;;;;;4.00;3.55;;;27.30;35.20;;;;;;5135028;27;20023;-50
2022/04/12 11:36:55;;;;;;;5.80;4.00;;;27.70;35.00;;;;;;5135104;27;20034;-47
2022/04/12 11:39:28;;;;;;;4.63;3.40;;;28.30;34.40;;;;;;5118672;27;20114;-46
2022/04/12 11:41:59;;;;;;;5.13;3.25;;;28.00;34.30;;;;;;5110529;27;20019;-46
2022/04/12 11:44:25;;;;;;;6.45;3.88;;;27.90;35.00;;;;;;5139626;27;20471;-49
2022/04/12 11:47:01;;;;;;;5.15;4.00;;;27.30;34.60;;;;;;5135576;27;20053;-49
2022/04/12 11:49:47;;;;;;;4.55;3.90;;;26.60;34.70;;;;;;5117084;27;20027;-48
2022/04/12 11:52:14;;;;;;;5.90;4.38;;;26.20;35.20;;;;;;5118542;27;20034;-50
2022/04/12 11:54:41;;;;;;;7.15;4.75;;;25.70;36.70;;;;;;5121644;27;20101;-49
2022/04/12 11:57:20;;;;;;;5.50;4.05;;;25.90;38.10;;;;;;5124444;27;20012;-49
2022/04/12 11:59:51;;;;;;;7.30;4.47;;;26.40;36.80;;;;;;5117188;27;20069;-48
2022/04/12 12:02:17;;;;;;;;;;;26.60;36.80;;;;;;5120254;27;20032;-49
2022/04/12 12:04:51;;;;;;;6.32;4.45;;;26.50;36.40;;;;;;5114697;27;19914;-48
2022/04/12 12:07:18;;;;;;;7.32;4.78;;;26.60;36.60;;;;;;5120405;27;20035;-47
2022/04/12 12:10:02;;;;;;;6.82;5.03;;;26.30;37.30;;;;;;5126485;27;20057;-47
2022/04/12 12:12:32;;;;;;;5.88;4.57;;;25.70;37.30;;;;;;5120173;27;20027;-49
2022/04/12 12:14:59;;;;;;;6.82;5.32;;;24.90;38.20;;;;;;5130625;27;20033;-49
2022/04/12 12:17:27;;;;;;;10.43;5.35;;;24.20;39.10;;;;;;5132518;27;20079;-49
2022/04/12 12:19:52;;;;;;;9.15;5.50;;;23.80;40.20;;;;;;5139714;27;20023;-47
2022/04/12 12:22:19;;;;;;;5.70;5.07;;;23.70;40.80;;;;;;5135519;27;20106;-50
2022/04/12 12:24:53;;;;;;;6.07;4.88;;;23.50;40.90;;;;;;5130073;27;20031;-48
2022/04/12 12:27:33;;;;;;;10.95;5.90;;;23.30;41.20;;;;;;5107777;28;20092;-46
2022/04/12 12:30:02;;;;;;;6.30;5.20;;;23.50;41.00;;;;;;5123570;27;20022;-50
2022/04/12 12:32:35;;;;;;;7.43;5.53;;;23.40;40.30;;;;;;5136473;27;20055;-50
2022/04/12 12:35:03;;;;;;;5.75;4.63;;;23.40;40.20;;;;;;5141629;27;20058;-49
2022/04/12 12:37:29;;;;;;;49.25;35.63;;;23.30;41.70;;;;;;5150168;27;20621;-47
2022/04/12 12:39:54;;;;;;;8.00;5.45;;;23.10;41.10;;;;;;5130331;27;20061;-47
2022/04/12 12:42:22;;;;;;;8.05;5.70;;;23.10;40.70;;;;;;5121280;27;20046;-47
2022/04/12 12:44:48;;;;;;;9.02;5.40;;;22.80;41.10;;;;;;5118028;27;20042;-48
2022/04/12 12:47:14;;;;;;;8.15;4.70;;;22.70;39.70;;;;;;5122656;27;20019;-49
2022/04/12 12:49:41;;;;;;;7.05;5.20;;;22.50;41.80;;;;;;5119460;27;20373;-46
2022/04/12 12:52:15;;;;;;;9.55;5.68;;;22.60;40.40;;;;;;5118992;27;20028;-47
2022/04/12 12:54:40;;;;;;;9.73;5.60;;;22.60;39.50;;;;;;5120951;27;20037;-49
2022/04/12 12:57:09;;;;;;;8.35;5.55;;;22.60;40.60;;;;;;5126442;27;20019;-49